sensor_id;sensor_type;location;lat;lon;timestamp;pressure;altitude;pressure_sealevel;temperature;humidity
71666;BME280;59503;53.486;10.196;2023-07-16T00:01:57;100804.59;;;19.20;100.00
71666;BME280;59503;53.486;10.196;2023-07-16T00:04:23;100796.00;;;19.18;100.00
71666;BME280;59503;53.486;10.196;2023-07-16T00:06:48;100819.94;;;19.21;100.00
71666;BME280;59503;53.486;10.196;2023-07-16T00:09:14;100799.91;;;19.17;100.00
71666;BME280;59503;53.486;10.196;2023-07-16T00:11:39;100797.63;;;19.12;100.00
71666;BME280;59503;53.486;10.196;2023-07-16T00:14:05;100780.63;;;19.17;100.00
71666;BME280;59503;53.486;10.196;2023-07-16T00:16:30;100798.75;;;19.18;100.00
71666;BME280;59503;53.486;10.196;2023-07-16T00:18:56;100805.16;;;19.12;100.00
71666;BME280;59503;53.486;10.196;2023-07-16T00:21:21;100790.28;;;19.06;100.00
71666;BME280;59503;53.486;10.196;2023-07-16T00:23:47;100808.84;;;19.02;100.00
71666;BME280;59503;53.486;10.196;2023-07-16T00:26:13;100829.31;;;19.01;100.00
71666;BME280;59503;53.486;10.196;2023-07-16T00:28:38;100837.59;;;19.01;100.00
71666;BME280;59503;53.486;10.196;2023-07-16T00:31:04;100835.63;;;19.01;100.00
71666;BME280;59503;53.486;10.196;2023-07-16T00:33:29;100820.63;;;19.02;100.00
71666;BME280;59503;53.486;10.196;2023-07-16T00:35:55;100852.50;;;19.03;100.00
71666;BME280;59503;53.486;10.196;2023-07-16T00:38:20;100855.28;;;19.03;100.00
71666;BME280;59503;53.486;10.196;2023-07-16T00:40:46;100852.16;;;19.01;100.00
71666;BME280;59503;53.486;10.196;2023-07-16T00:43:12;100867.09;;;19.00;100.00
71666;BME280;59503;53.486;10.196;2023-07-16T00:45:39;100878.91;;;19.01;100.00
71666;BME280;59503;53.486;10.196;2023-07-16T00:48:06;100896.66;;;19.00;100.00
71666;BME280;59503;53.486;10.196;2023-07-16T00:50:33;100897.06;;;18.98;100.00
71666;BME280;59503;53.486;10.196;2023-07-16T00:53:01;100877.72;;;19.02;100.00
71666;BME280;59503;53.486;10.196;2023-07-16T00:55:28;100856.78;;;19.08;100.00
71666;BME280;59503;53.486;10.196;2023-07-16T00:57:57;100862.38;;;19.01;100.00
71666;BME280;59503;53.486;10.196;2023-07-16T01:00:25;100862.44;;;18.97;100.00
71666;BME280;59503;53.486;10.196;2023-07-16T01:02:51;100853.09;;;18.91;100.00
71666;BME280;59503;53.486;10.196;2023-07-16T01:05:17;100847.19;;;18.89;100.00
71666;BME280;59503;53.486;10.196;2023-07-16T01:07:54;100843.72;;;18.85;100.00
71666;BME280;59503;53.486;10.196;2023-07-16T01:10:22;100837.13;;;18.79;100.00
71666;BME280;59503;53.486;10.196;2023-07-16T01:12:48;100827.34;;;18.75;100.00
71666;BME280;59503;53.486;10.196;2023-07-16T01:15:15;100822.66;;;18.72;100.00
71666;BME280;59503;53.486;10.196;2023-07-16T01:17:41;100855.78;;;18.68;100.00
71666;BME280;59503;53.486;10.196;2023-07-16T01:20:07;100887.28;;;18.64;100.00
71666;BME280;59503;53.486;10.196;2023-07-16T01:22:47;100893.16;;;18.66;100.00
71666;BME280;59503;53.486;10.196;2023-07-16T01:25:22;100876.22;;;18.67;100.00
71666;BME280;59503;53.486;10.196;2023-07-16T01:30:37;100850.66;;;18.67;100.00
71666;BME280;59503;53.486;10.196;2023-07-16T01:33:05;100841.25;;;18.64;100.00
71666;BME280;59503;53.486;10.196;2023-07-16T01:35:30;100842.81;;;18.65;100.00
71666;BME280;59503;53.486;10.196;2023-07-16T01:37:56;100858.97;;;18.63;100.00
71666;BME280;59503;53.486;10.196;2023-07-16T01:40:22;100863.78;;;18.55;100.00
71666;BME280;59503;53.486;10.196;2023-07-16T01:42:48;100870.91;;;18.53;100.00
71666;BME280;59503;53.486;10.196;2023-07-16T01:45:13;100859.16;;;18.49;100.00
71666;BME280;59503;53.486;10.196;2023-07-16T01:47:49;100859.19;;;18.45;100.00
71666;BME280;59503;53.486;10.196;2023-07-16T01:50:20;100871.81;;;18.43;100.00
71666;BME280;59503;53.486;10.196;2023-07-16T01:52:46;100861.63;;;18.36;100.00
71666;BME280;59503;53.486;10.196;2023-07-16T01:55:11;100865.56;;;18.35;100.00
71666;BME280;59503;53.486;10.196;2023-07-16T01:57:37;100866.41;;;18.32;100.00
71666;BME280;59503;53.486;10.196;2023-07-16T02:00:02;100869.16;;;18.32;100.00
71666;BME280;59503;53.486;10.196;2023-07-16T02:02:28;100873.09;;;18.31;100.00
71666;BME280;59503;53.486;10.196;2023-07-16T02:04:53;100879.88;;;18.23;100.00
71666;BME280;59503;53.486;10.196;2023-07-16T02:07:19;100896.53;;;18.09;100.00
71666;BME280;59503;53.486;10.196;2023-07-16T02:09:44;100895.06;;;17.98;100.00
71666;BME280;59503;53.486;10.196;2023-07-16T02:12:11;100911.31;;;17.85;100.00
71666;BME280;59503;53.486;10.196;2023-07-16T02:14:36;100899.56;;;17.78;100.00
71666;BME280;59503;53.486;10.196;2023-07-16T02:17:02;100872.53;;;17.69;100.00
71666;BME280;59503;53.486;10.196;2023-07-16T02:19:27;100870.66;;;17.59;100.00
71666;BME280;59503;53.486;10.196;2023-07-16T02:21:52;100880.97;;;17.52;100.00
71666;BME280;59503;53.486;10.196;2023-07-16T02:24:19;100888.44;;;17.48;100.00
71666;BME280;59503;53.486;10.196;2023-07-16T02:26:45;100895.50;;;17.45;100.00
71666;BME280;59503;53.486;10.196;2023-07-16T02:29:10;100890.84;;;17.38;100.00
71666;BME280;59503;53.486;10.196;2023-07-16T02:31:36;100891.59;;;17.39;100.00
71666;BME280;59503;53.486;10.196;2023-07-16T02:34:01;100892.81;;;17.38;100.00
71666;BME280;59503;53.486;10.196;2023-07-16T02:36:27;100898.72;;;17.33;100.00
71666;BME280;59503;53.486;10.196;2023-07-16T02:38:52;100893.63;;;17.31;100.00
71666;BME280;59503;53.486;10.196;2023-07-16T02:41:18;100896.00;;;17.29;100.00
71666;BME280;59503;53.486;10.196;2023-07-16T02:43:45;100887.38;;;17.27;100.00
71666;BME280;59503;53.486;10.196;2023-07-16T02:46:11;100882.28;;;17.26;100.00
71666;BME280;59503;53.486;10.196;2023-07-16T02:48:36;100869.75;;;17.25;100.00
71666;BME280;59503;53.486;10.196;2023-07-16T02:51:02;100879.94;;;17.24;100.00
71666;BME280;59503;53.486;10.196;2023-07-16T02:53:27;100892.53;;;17.22;100.00
71666;BME280;59503;53.486;10.196;2023-07-16T02:55:53;100893.31;;;17.19;100.00
71666;BME280;59503;53.486;10.196;2023-07-16T02:58:18;100895.72;;;17.17;100.00
71666;BME280;59503;53.486;10.196;2023-07-16T03:00:43;100888.63;;;17.16;100.00
71666;BME280;59503;53.486;10.196;2023-07-16T03:03:09;100894.94;;;17.13;100.00
71666;BME280;59503;53.486;10.196;2023-07-16T03:05:35;100885.50;;;17.14;100.00
71666;BME280;59503;53.486;10.196;2023-07-16T03:08:00;100887.09;;;17.15;100.00
71666;BME280;59503;53.486;10.196;2023-07-16T03:10:25;100889.44;;;17.13;100.00
71666;BME280;59503;53.486;10.196;2023-07-16T03:12:52;100888.25;;;17.14;100.00
71666;BME280;59503;53.486;10.196;2023-07-16T03:15:18;100867.84;;;17.15;100.00
71666;BME280;59503;53.486;10.196;2023-07-16T03:17:43;100870.59;;;17.15;100.00
71666;BME280;59503;53.486;10.196;2023-07-16T03:20:09;100863.56;;;17.10;100.00
71666;BME280;59503;53.486;10.196;2023-07-16T03:22:35;100867.09;;;17.11;100.00
71666;BME280;59503;53.486;10.196;2023-07-16T03:25:00;100878.88;;;17.08;100.00
71666;BME280;59503;53.486;10.196;2023-07-16T03:27:26;100884.00;;;17.06;100.00
71666;BME280;59503;53.486;10.196;2023-07-16T03:29:51;100894.97;;;17.06;100.00
71666;BME280;59503;53.486;10.196;2023-07-16T03:32:17;100893.44;;;17.01;100.00
71666;BME280;59503;53.486;10.196;2023-07-16T03:34:42;100889.91;;;17.01;100.00
71666;BME280;59503;53.486;10.196;2023-07-16T03:37:08;100890.31;;;16.99;100.00
71666;BME280;59503;53.486;10.196;2023-07-16T03:39:33;100899.75;;;16.95;100.00
71666;BME280;59503;53.486;10.196;2023-07-16T03:41:59;100898.56;;;16.96;100.00
71666;BME280;59503;53.486;10.196;2023-07-16T03:44:24;100895.06;;;16.92;100.00
71666;BME280;59503;53.486;10.196;2023-07-16T03:46:49;100897.41;;;16.93;100.00
71666;BME280;59503;53.486;10.196;2023-07-16T03:49:15;100901.34;;;16.89;100.00
71666;BME280;59503;53.486;10.196;2023-07-16T03:51:41;100911.53;;;16.92;100.00
71666;BME280;59503;53.486;10.196;2023-07-16T03:54:06;100906.84;;;16.89;100.00
71666;BME280;59503;53.486;10.196;2023-07-16T03:56:31;100919.38;;;16.93;100.00
71666;BME280;59503;53.486;10.196;2023-07-16T03:58:57;100928.00;;;16.95;100.00
71666;BME280;59503;53.486;10.196;2023-07-16T04:01:22;100939.75;;;16.96;100.00
71666;BME280;59503;53.486;10.196;2023-07-16T04:03:48;100940.53;;;17.00;100.00
71666;BME280;59503;53.486;10.196;2023-07-16T04:06:13;100937.00;;;17.03;100.00
71666;BME280;59503;53.486;10.196;2023-07-16T04:08:39;100939.69;;;17.10;100.00
71666;BME280;59503;53.486;10.196;2023-07-16T04:11:05;100957.34;;;17.12;100.00
71666;BME280;59503;53.486;10.196;2023-07-16T04:13:30;100958.50;;;17.15;100.00
71666;BME280;59503;53.486;10.196;2023-07-16T04:15:56;100964.75;;;17.19;100.00
71666;BME280;59503;53.486;10.196;2023-07-16T04:18:25;100971.81;;;17.20;100.00
71666;BME280;59503;53.486;10.196;2023-07-16T04:20:51;100974.97;;;17.18;100.00
71666;BME280;59503;53.486;10.196;2023-07-16T04:23:17;100981.22;;;17.26;100.00
71666;BME280;59503;53.486;10.196;2023-07-16T04:25:42;100984.34;;;17.28;100.00
71666;BME280;59503;53.486;10.196;2023-07-16T04:28:10;100980.00;;;17.30;100.00
71666;BME280;59503;53.486;10.196;2023-07-16T04:30:35;100973.31;;;17.35;100.00
71666;BME280;59503;53.486;10.196;2023-07-16T04:33:03;100983.88;;;17.40;100.00
71666;BME280;59503;53.486;10.196;2023-07-16T04:35:28;100980.34;;;17.39;100.00
71666;BME280;59503;53.486;10.196;2023-07-16T04:37:54;100978.81;;;17.35;100.00
71666;BME280;59503;53.486;10.196;2023-07-16T04:40:19;100978.81;;;17.31;100.00
71666;BME280;59503;53.486;10.196;2023-07-16T04:42:44;100991.03;;;17.27;100.00
71666;BME280;59503;53.486;10.196;2023-07-16T04:45:10;100987.50;;;17.23;100.00
71666;BME280;59503;53.486;10.196;2023-07-16T04:47:35;100989.88;;;17.21;100.00
71666;BME280;59503;53.486;10.196;2023-07-16T04:50:01;100980.88;;;17.17;100.00
71666;BME280;59503;53.486;10.196;2023-07-16T04:52:27;100982.03;;;17.16;100.00
71666;BME280;59503;53.486;10.196;2023-07-16T04:54:52;100985.19;;;17.18;100.00
71666;BME280;59503;53.486;10.196;2023-07-16T04:57:18;100982.03;;;17.19;100.00
71666;BME280;59503;53.486;10.196;2023-07-16T04:59:43;100979.66;;;17.25;100.00
71666;BME280;59503;53.486;10.196;2023-07-16T05:02:09;100978.03;;;17.31;100.00
71666;BME280;59503;53.486;10.196;2023-07-16T05:04:34;100983.50;;;17.38;100.00
71666;BME280;59503;53.486;10.196;2023-07-16T05:07:04;100986.22;;;17.42;100.00
71666;BME280;59503;53.486;10.196;2023-07-16T05:09:29;100989.38;;;17.47;100.00
71666;BME280;59503;53.486;10.196;2023-07-16T05:11:55;100990.50;;;17.53;100.00
71666;BME280;59503;53.486;10.196;2023-07-16T05:14:21;100990.06;;;17.58;100.00
71666;BME280;59503;53.486;10.196;2023-07-16T05:16:46;100991.19;;;17.64;100.00
71666;BME280;59503;53.486;10.196;2023-07-16T05:19:11;100997.81;;;17.77;100.00
71666;BME280;59503;53.486;10.196;2023-07-16T05:21:37;101017.78;;;17.85;100.00
71666;BME280;59503;53.486;10.196;2023-07-16T05:24:04;101014.56;;;17.93;100.00
71666;BME280;59503;53.486;10.196;2023-07-16T05:26:29;101018.03;;;18.04;100.00
71666;BME280;59503;53.486;10.196;2023-07-16T05:28:55;101010.47;;;18.15;100.00
71666;BME280;59503;53.486;10.196;2023-07-16T05:31:21;101008.03;;;18.24;100.00
71666;BME280;59503;53.486;10.196;2023-07-16T05:33:46;101017.75;;;18.39;100.00
71666;BME280;59503;53.486;10.196;2023-07-16T05:36:11;101018.00;;;18.52;100.00
71666;BME280;59503;53.486;10.196;2023-07-16T05:38:37;101017.88;;;18.66;100.00
71666;BME280;59503;53.486;10.196;2023-07-16T05:41:03;101012.22;;;18.77;100.00
71666;BME280;59503;53.486;10.196;2023-07-16T05:43:30;101026.22;;;18.93;100.00
71666;BME280;59503;53.486;10.196;2023-07-16T05:45:56;101023.66;;;19.09;100.00
71666;BME280;59503;53.486;10.196;2023-07-16T05:48:21;101028.22;;;19.22;100.00
71666;BME280;59503;53.486;10.196;2023-07-16T05:50:46;101030.47;;;19.34;100.00
71666;BME280;59503;53.486;10.196;2023-07-16T05:53:12;101031.78;;;19.53;100.00
71666;BME280;59503;53.486;10.196;2023-07-16T05:55:42;101033.88;;;19.72;100.00
71666;BME280;59503;53.486;10.196;2023-07-16T05:58:08;101035.19;;;19.91;100.00
71666;BME280;59503;53.486;10.196;2023-07-16T06:00:34;101033.63;;;20.13;100.00
71666;BME280;59503;53.486;10.196;2023-07-16T06:03:02;101032.56;;;20.30;100.00
71666;BME280;59503;53.486;10.196;2023-07-16T06:05:27;101037.44;;;20.45;100.00
71666;BME280;59503;53.486;10.196;2023-07-16T06:07:56;101032.31;;;20.67;100.00
71666;BME280;59503;53.486;10.196;2023-07-16T06:10:21;101042.66;;;20.63;100.00
71666;BME280;59503;53.486;10.196;2023-07-16T06:12:47;101038.38;;;20.81;100.00
71666;BME280;59503;53.486;10.196;2023-07-16T06:15:12;101030.63;;;20.92;99.71
71666;BME280;59503;53.486;10.196;2023-07-16T06:17:37;101040.22;;;21.08;96.24
71666;BME280;59503;53.486;10.196;2023-07-16T06:20:03;101044.22;;;21.07;94.08
71666;BME280;59503;53.486;10.196;2023-07-16T06:22:29;101045.81;;;21.24;90.55
71666;BME280;59503;53.486;10.196;2023-07-16T06:24:54;101058.34;;;21.48;91.70
71666;BME280;59503;53.486;10.196;2023-07-16T06:27:20;101045.38;;;21.45;88.19
71666;BME280;59503;53.486;10.196;2023-07-16T06:29:46;101053.13;;;21.69;89.24
71666;BME280;59503;53.486;10.196;2023-07-16T06:32:11;101055.16;;;21.85;86.25
71666;BME280;59503;53.486;10.196;2023-07-16T06:34:37;101062.00;;;21.96;85.08
71666;BME280;59503;53.486;10.196;2023-07-16T06:37:02;101062.38;;;21.98;81.96
71666;BME280;59503;53.486;10.196;2023-07-16T06:39:27;101067.72;;;22.22;81.27
71666;BME280;59503;53.486;10.196;2023-07-16T06:41:53;101070.44;;;22.41;79.11
71666;BME280;59503;53.486;10.196;2023-07-16T06:44:18;101061.59;;;22.46;76.23
71666;BME280;59503;53.486;10.196;2023-07-16T06:46:44;101069.97;;;22.75;75.10
71666;BME280;59503;53.486;10.196;2023-07-16T06:49:09;101067.06;;;22.78;73.67
71666;BME280;59503;53.486;10.196;2023-07-16T06:51:35;101065.69;;;22.86;71.17
71666;BME280;59503;53.486;10.196;2023-07-16T06:54:00;101071.31;;;23.11;68.42
71666;BME280;59503;53.486;10.196;2023-07-16T06:56:25;101077.19;;;23.42;65.72
71666;BME280;59503;53.486;10.196;2023-07-16T06:58:52;101084.13;;;23.21;65.69
71666;BME280;59503;53.486;10.196;2023-07-16T07:01:17;101073.88;;;23.47;64.51
71666;BME280;59503;53.486;10.196;2023-07-16T07:03:42;101075.22;;;23.68;65.67
71666;BME280;59503;53.486;10.196;2023-07-16T07:06:08;101079.13;;;23.70;64.49
71666;BME280;59503;53.486;10.196;2023-07-16T07:08:36;101079.81;;;23.87;64.09
71666;BME280;59503;53.486;10.196;2023-07-16T07:11:04;101083.38;;;24.12;63.59
71666;BME280;59503;53.486;10.196;2023-07-16T07:13:29;101077.16;;;24.21;60.92
71666;BME280;59503;53.486;10.196;2023-07-16T07:15:55;101088.56;;;24.23;60.25
71666;BME280;59503;53.486;10.196;2023-07-16T07:18:21;101074.69;;;24.23;56.42
71666;BME280;59503;53.486;10.196;2023-07-16T07:20:47;101087.16;;;24.31;59.54
71666;BME280;59503;53.486;10.196;2023-07-16T07:23:16;101086.03;;;24.28;55.25
71666;BME280;59503;53.486;10.196;2023-07-16T07:25:42;101077.91;;;23.96;57.70
71666;BME280;59503;53.486;10.196;2023-07-16T07:28:07;101076.81;;;24.06;60.00
71666;BME280;59503;53.486;10.196;2023-07-16T07:30:33;101078.47;;;23.91;56.31
71666;BME280;59503;53.486;10.196;2023-07-16T07:32:58;101079.41;;;24.01;58.28
71666;BME280;59503;53.486;10.196;2023-07-16T07:35:24;101079.16;;;24.20;57.33
71666;BME280;59503;53.486;10.196;2023-07-16T07:37:49;101081.59;;;24.31;57.11
71666;BME280;59503;53.486;10.196;2023-07-16T07:40:15;101080.88;;;24.39;57.97
71666;BME280;59503;53.486;10.196;2023-07-16T07:42:40;101082.78;;;24.89;57.02
71666;BME280;59503;53.486;10.196;2023-07-16T07:45:06;101088.22;;;25.14;56.47
71666;BME280;59503;53.486;10.196;2023-07-16T07:47:32;101083.69;;;25.29;55.02
71666;BME280;59503;53.486;10.196;2023-07-16T07:49:57;101076.00;;;25.33;55.02
71666;BME280;59503;53.486;10.196;2023-07-16T07:52:23;101085.75;;;25.59;54.17
71666;BME280;59503;53.486;10.196;2023-07-16T07:54:48;101086.34;;;25.54;52.02
71666;BME280;59503;53.486;10.196;2023-07-16T07:57:14;101083.94;;;25.22;52.66
71666;BME280;59503;53.486;10.196;2023-07-16T07:59:40;101085.13;;;24.78;56.46
71666;BME280;59503;53.486;10.196;2023-07-16T08:02:05;101088.09;;;24.96;56.66
71666;BME280;59503;53.486;10.196;2023-07-16T08:04:31;101088.59;;;25.25;57.47
71666;BME280;59503;53.486;10.196;2023-07-16T08:06:57;101091.84;;;25.67;55.94
71666;BME280;59503;53.486;10.196;2023-07-16T08:09:23;101080.78;;;25.94;53.46
71666;BME280;59503;53.486;10.196;2023-07-16T08:11:49;101084.22;;;25.98;51.10
71666;BME280;59503;53.486;10.196;2023-07-16T08:14:14;101094.84;;;26.12;50.41
71666;BME280;59503;53.486;10.196;2023-07-16T08:16:40;101096.25;;;26.17;48.51
71666;BME280;59503;53.486;10.196;2023-07-16T08:19:05;101098.38;;;26.04;48.80
71666;BME280;59503;53.486;10.196;2023-07-16T08:21:32;101090.94;;;25.79;49.81
71666;BME280;59503;53.486;10.196;2023-07-16T08:23:57;101098.13;;;25.58;49.96
71666;BME280;59503;53.486;10.196;2023-07-16T08:26:23;101084.34;;;25.55;49.26
71666;BME280;59503;53.486;10.196;2023-07-16T08:28:48;101076.59;;;25.90;48.14
71666;BME280;59503;53.486;10.196;2023-07-16T08:31:14;101091.50;;;25.96;48.21
71666;BME280;59503;53.486;10.196;2023-07-16T08:33:39;101082.81;;;25.94;46.88
71666;BME280;59503;53.486;10.196;2023-07-16T08:36:05;101076.59;;;25.81;46.10
71666;BME280;59503;53.486;10.196;2023-07-16T08:38:30;101085.84;;;25.77;46.96
71666;BME280;59503;53.486;10.196;2023-07-16T08:40:56;101077.19;;;25.76;47.26
71666;BME280;59503;53.486;10.196;2023-07-16T08:43:22;101088.72;;;25.65;46.38
71666;BME280;59503;53.486;10.196;2023-07-16T08:45:48;101076.44;;;25.53;47.51
71666;BME280;59503;53.486;10.196;2023-07-16T08:48:16;101084.03;;;25.93;46.61
71666;BME280;59503;53.486;10.196;2023-07-16T08:50:48;101083.75;;;26.00;45.57
71666;BME280;59503;53.486;10.196;2023-07-16T08:53:18;101079.91;;;25.66;48.00
71666;BME280;59503;53.486;10.196;2023-07-16T08:55:47;101083.75;;;25.91;45.56
71666;BME280;59503;53.486;10.196;2023-07-16T08:58:14;101091.91;;;26.25;46.04
71666;BME280;59503;53.486;10.196;2023-07-16T09:00:42;101084.72;;;26.63;42.41
71666;BME280;59503;53.486;10.196;2023-07-16T09:03:08;101107.47;;;26.53;41.60
71666;BME280;59503;53.486;10.196;2023-07-16T09:05:35;101105.06;;;26.91;41.07
71666;BME280;59503;53.486;10.196;2023-07-16T09:08:01;101113.41;;;27.27;40.74
71666;BME280;59503;53.486;10.196;2023-07-16T09:10:27;101112.81;;;27.41;40.63
71666;BME280;59503;53.486;10.196;2023-07-16T09:12:52;101127.16;;;26.58;39.95
71666;BME280;59503;53.486;10.196;2023-07-16T09:15:18;101114.47;;;26.57;41.38
71666;BME280;59503;53.486;10.196;2023-07-16T09:17:48;101122.28;;;26.89;39.65
71666;BME280;59503;53.486;10.196;2023-07-16T09:20:18;101129.13;;;27.07;37.35
71666;BME280;59503;53.486;10.196;2023-07-16T09:22:44;101132.16;;;27.63;36.49
71666;BME280;59503;53.486;10.196;2023-07-16T09:25:10;101131.72;;;28.06;36.45
71666;BME280;59503;53.486;10.196;2023-07-16T09:27:36;101130.31;;;28.11;35.27
71666;BME280;59503;53.486;10.196;2023-07-16T09:30:06;101122.19;;;28.22;35.58
71666;BME280;59503;53.486;10.196;2023-07-16T09:32:33;101127.06;;;27.52;36.61
71666;BME280;59503;53.486;10.196;2023-07-16T09:34:59;101135.44;;;27.07;38.25
71666;BME280;59503;53.486;10.196;2023-07-16T09:37:24;101152.94;;;26.71;40.62
71666;BME280;59503;53.486;10.196;2023-07-16T09:39:51;101140.44;;;27.30;37.77
71666;BME280;59503;53.486;10.196;2023-07-16T09:42:17;101143.53;;;27.41;37.07
71666;BME280;59503;53.486;10.196;2023-07-16T09:44:44;101128.97;;;27.97;37.08
71666;BME280;59503;53.486;10.196;2023-07-16T09:47:09;101136.50;;;28.47;36.10
71666;BME280;59503;53.486;10.196;2023-07-16T09:49:35;101151.72;;;28.79;36.08
71666;BME280;59503;53.486;10.196;2023-07-16T09:52:02;101149.63;;;28.65;34.75
71666;BME280;59503;53.486;10.196;2023-07-16T09:54:31;101152.78;;;27.74;36.14
71666;BME280;59503;53.486;10.196;2023-07-16T09:56:59;101151.88;;;26.87;37.28
71666;BME280;59503;53.486;10.196;2023-07-16T09:59:31;101151.09;;;25.98;39.24
71666;BME280;59503;53.486;10.196;2023-07-16T10:01:58;101173.94;;;25.62;39.52
71666;BME280;59503;53.486;10.196;2023-07-16T10:04:24;101165.00;;;25.67;40.36
71666;BME280;59503;53.486;10.196;2023-07-16T10:06:53;101172.88;;;26.12;39.75
71666;BME280;59503;53.486;10.196;2023-07-16T10:09:38;101166.97;;;26.10;39.02
71666;BME280;59503;53.486;10.196;2023-07-16T10:12:16;101178.31;;;26.64;39.01
71666;BME280;59503;53.486;10.196;2023-07-16T10:17:18;101173.28;;;26.81;40.01
71666;BME280;59503;53.486;10.196;2023-07-16T10:20:09;101181.53;;;27.48;39.07
71666;BME280;59503;53.486;10.196;2023-07-16T10:22:42;101176.06;;;27.80;37.80
71666;BME280;59503;53.486;10.196;2023-07-16T10:27:43;101183.66;;;26.80;38.69
71666;BME280;59503;53.486;10.196;2023-07-16T10:30:10;101195.63;;;26.99;37.18
71666;BME280;59503;53.486;10.196;2023-07-16T10:32:35;101191.28;;;27.25;37.71
71666;BME280;59503;53.486;10.196;2023-07-16T10:35:02;101188.06;;;27.45;36.82
71666;BME280;59503;53.486;10.196;2023-07-16T10:37:28;101180.75;;;27.29;37.45
71666;BME280;59503;53.486;10.196;2023-07-16T10:39:55;101184.75;;;26.92;39.10
71666;BME280;59503;53.486;10.196;2023-07-16T10:42:22;101192.50;;;26.97;38.46
71666;BME280;59503;53.486;10.196;2023-07-16T10:44:49;101191.78;;;26.57;40.99
71666;BME280;59503;53.486;10.196;2023-07-16T10:47:36;101192.66;;;26.36;41.41
71666;BME280;59503;53.486;10.196;2023-07-16T10:50:09;101195.50;;;26.14;40.92
71666;BME280;59503;53.486;10.196;2023-07-16T10:52:35;101199.19;;;25.90;40.26
71666;BME280;59503;53.486;10.196;2023-07-16T10:55:01;101207.09;;;25.48;40.27
71666;BME280;59503;53.486;10.196;2023-07-16T10:57:28;101203.22;;;25.45;41.94
71666;BME280;59503;53.486;10.196;2023-07-16T10:59:55;101207.56;;;25.34;42.59
71666;BME280;59503;53.486;10.196;2023-07-16T11:02:23;101209.94;;;25.35;40.83
71666;BME280;59503;53.486;10.196;2023-07-16T11:04:49;101198.56;;;24.96;42.51
71666;BME280;59503;53.486;10.196;2023-07-16T11:07:15;101199.69;;;24.98;42.25
71666;BME280;59503;53.486;10.196;2023-07-16T11:09:52;101203.72;;;25.19;41.63
71666;BME280;59503;53.486;10.196;2023-07-16T11:12:21;101219.69;;;25.18;41.90
71666;BME280;59503;53.486;10.196;2023-07-16T11:14:48;101217.34;;;25.51;41.72
71666;BME280;59503;53.486;10.196;2023-07-16T11:17:15;101215.78;;;25.93;41.22
71666;BME280;59503;53.486;10.196;2023-07-16T11:19:45;101203.94;;;26.32;42.08
71666;BME280;59503;53.486;10.196;2023-07-16T11:22:10;101218.91;;;26.65;40.86
71666;BME280;59503;53.486;10.196;2023-07-16T11:24:47;101211.97;;;26.70;37.11
71666;BME280;59503;53.486;10.196;2023-07-16T11:27:20;101218.09;;;26.96;37.99
71666;BME280;59503;53.486;10.196;2023-07-16T11:29:56;101215.53;;;27.55;37.28
71666;BME280;59503;53.486;10.196;2023-07-16T11:32:35;101215.94;;;27.99;37.56
71666;BME280;59503;53.486;10.196;2023-07-16T11:35:06;101230.75;;;28.65;35.30
71666;BME280;59503;53.486;10.196;2023-07-16T11:37:34;101229.78;;;27.93;36.13
71666;BME280;59503;53.486;10.196;2023-07-16T11:40:04;101224.16;;;27.84;37.41
71666;BME280;59503;53.486;10.196;2023-07-16T11:42:34;101230.38;;;27.97;37.26
71666;BME280;59503;53.486;10.196;2023-07-16T11:45:02;101221.91;;;28.25;35.69
71666;BME280;59503;53.486;10.196;2023-07-16T11:47:28;101229.06;;;28.91;35.50
71666;BME280;59503;53.486;10.196;2023-07-16T11:49:54;101218.00;;;28.73;36.26
71666;BME280;59503;53.486;10.196;2023-07-16T11:54:48;101227.16;;;28.32;35.33
71666;BME280;59503;53.486;10.196;2023-07-16T11:57:15;101230.53;;;27.85;37.89
71666;BME280;59503;53.486;10.196;2023-07-16T11:59:41;101229.63;;;27.43;37.35
71666;BME280;59503;53.486;10.196;2023-07-16T12:02:06;101232.28;;;27.46;37.36
71666;BME280;59503;53.486;10.196;2023-07-16T12:04:32;101227.34;;;26.83;39.84
71666;BME280;59503;53.486;10.196;2023-07-16T12:06:58;101234.03;;;26.46;39.80
71666;BME280;59503;53.486;10.196;2023-07-16T12:09:23;101229.56;;;26.18;40.42
71666;BME280;59503;53.486;10.196;2023-07-16T12:11:49;101242.09;;;25.92;40.40
71666;BME280;59503;53.486;10.196;2023-07-16T12:14:14;101235.94;;;25.76;41.95
71666;BME280;59503;53.486;10.196;2023-07-16T12:16:39;101243.53;;;25.75;42.62
71666;BME280;59503;53.486;10.196;2023-07-16T12:19:07;101244.94;;;25.80;42.88
71666;BME280;59503;53.486;10.196;2023-07-16T12:21:32;101236.25;;;25.77;42.45
71666;BME280;59503;53.486;10.196;2023-07-16T12:23:58;101243.63;;;25.50;41.53
71666;BME280;59503;53.486;10.196;2023-07-16T12:26:23;101244.69;;;25.65;42.19
71666;BME280;59503;53.486;10.196;2023-07-16T12:28:48;101245.13;;;25.63;41.61
71666;BME280;59503;53.486;10.196;2023-07-16T12:31:14;101235.88;;;25.66;41.70
71666;BME280;59503;53.486;10.196;2023-07-16T12:33:41;101240.53;;;25.69;40.10
71666;BME280;59503;53.486;10.196;2023-07-16T12:36:07;101247.81;;;25.67;41.74
71666;BME280;59503;53.486;10.196;2023-07-16T12:38:32;101258.53;;;25.77;40.81
71666;BME280;59503;53.486;10.196;2023-07-16T12:40:58;101260.03;;;25.69;41.27
71666;BME280;59503;53.486;10.196;2023-07-16T12:43:23;101261.16;;;25.72;42.15